createdAt,value
2023-03-31T00:01:27.581Z,11.17
2023-03-31T00:04:03.844Z,11.16
2023-03-31T00:06:37.916Z,11.13
2023-03-31T00:09:06.498Z,11.20
2023-03-31T00:11:34.412Z,11.18
2023-03-31T00:14:02.502Z,11.21
2023-03-31T00:16:30.576Z,11.22
2023-03-31T00:19:02.029Z,11.21
2023-03-31T00:21:33.968Z,11.17
2023-03-31T00:24:03.310Z,11.16
2023-03-31T00:26:31.677Z,11.16
2023-03-31T00:29:00.136Z,11.17
2023-03-31T00:31:28.825Z,11.18
2023-03-31T00:33:57.410Z,11.18
2023-03-31T00:36:28.434Z,11.11
2023-03-31T00:38:59.237Z,11.15
2023-03-31T00:41:27.653Z,11.18
2023-03-31T00:44:08.367Z,11.17
2023-03-31T00:46:39.282Z,11.14
2023-03-31T00:49:07.430Z,11.18
2023-03-31T00:51:36.708Z,11.25
2023-03-31T00:54:07.126Z,11.23
2023-03-31T00:56:37.700Z,11.23
2023-03-31T00:59:09.032Z,11.20
2023-03-31T01:01:39.453Z,11.20
2023-03-31T01:04:09.964Z,11.23
2023-03-31T01:06:47.131Z,11.32
2023-03-31T01:09:16.988Z,11.28
2023-03-31T01:11:46.320Z,11.34
2023-03-31T01:14:14.433Z,11.30
2023-03-31T01:16:42.398Z,11.32
2023-03-31T01:19:15.412Z,11.30
2023-03-31T01:22:01.579Z,11.28
2023-03-31T01:25:01.767Z,11.24
2023-03-31T01:27:41.473Z,11.21
2023-03-31T01:30:41.377Z,11.15
2023-03-31T01:33:40.473Z,11.11
2023-03-31T01:36:34.176Z,11.00
2023-03-31T01:39:41.014Z,10.87
2023-03-31T01:42:12.572Z,10.86
2023-03-31T01:44:45.321Z,10.77
2023-03-31T01:47:18.359Z,10.77
2023-03-31T01:49:48.660Z,10.75
2023-03-31T01:52:21.494Z,10.67
2023-03-31T01:54:52.169Z,10.69
2023-03-31T01:57:24.859Z,10.63
2023-03-31T01:59:57.725Z,10.57
2023-03-31T02:02:29.140Z,10.59
2023-03-31T02:05:00.686Z,10.48
2023-03-31T02:07:32.849Z,10.47
2023-03-31T02:10:03.124Z,10.48
2023-03-31T02:12:33.593Z,10.55
2023-03-31T02:15:03.527Z,10.54
2023-03-31T02:17:32.730Z,10.45
2023-03-31T02:20:06.900Z,10.44
2023-03-31T02:22:38.154Z,10.45
2023-03-31T02:25:07.879Z,10.44
2023-03-31T02:27:40.430Z,10.48
2023-03-31T02:30:09.456Z,10.48
2023-03-31T02:32:39.737Z,10.47
2023-03-31T02:35:09.601Z,10.46
2023-03-31T02:37:38.069Z,10.42
2023-03-31T02:40:10.571Z,10.46
2023-03-31T02:42:40.316Z,10.42
2023-03-31T02:45:29.485Z,10.42
2023-03-31T02:47:57.950Z,10.48
2023-03-31T02:50:34.296Z,10.49
2023-03-31T02:53:04.830Z,10.46
2023-03-31T02:55:46.249Z,10.42
2023-03-31T02:58:58.927Z,10.40
2023-03-31T03:01:40.582Z,10.30
2023-03-31T03:04:18.104Z,10.27
2023-03-31T03:06:55.125Z,10.23
2023-03-31T03:09:35.040Z,10.17
2023-03-31T03:12:09.670Z,10.12
2023-03-31T03:14:42.881Z,10.10
2023-03-31T03:17:13.214Z,10.01
2023-03-31T03:19:42.807Z,10.04
2023-03-31T03:22:11.212Z,10.00
2023-03-31T03:24:39.890Z,9.99
2023-03-31T03:27:07.835Z,10.00
2023-03-31T03:29:35.737Z,10.10
2023-03-31T03:32:05.135Z,10.15
2023-03-31T03:34:33.067Z,10.18
2023-03-31T03:37:00.998Z,10.20
2023-03-31T03:39:28.867Z,10.26
2023-03-31T03:41:56.744Z,10.26
2023-03-31T03:44:24.688Z,10.28
2023-03-31T03:46:52.610Z,10.32
2023-03-31T03:49:22.069Z,10.33
2023-03-31T03:51:49.946Z,10.32
2023-03-31T03:54:17.883Z,10.36
2023-03-31T03:56:45.851Z,10.39
2023-03-31T03:59:13.869Z,10.41
2023-03-31T04:01:41.868Z,10.44
2023-03-31T04:04:10.018Z,10.47
2023-03-31T04:06:39.555Z,10.52
2023-03-31T04:09:07.553Z,10.45
2023-03-31T04:11:35.496Z,10.56
2023-03-31T04:14:03.489Z,10.56
2023-03-31T04:16:32.394Z,10.61
2023-03-31T04:19:03.886Z,10.60
2023-03-31T04:21:34.962Z,10.59
2023-03-31T04:24:04.992Z,10.52
2023-03-31T04:26:43.156Z,10.55
2023-03-31T04:29:13.260Z,10.60
2023-03-31T04:31:42.925Z,10.58
2023-03-31T04:34:13.611Z,10.57
2023-03-31T04:36:47.583Z,10.55
2023-03-31T04:39:18.565Z,10.56
2023-03-31T04:41:46.537Z,10.57
2023-03-31T04:44:14.430Z,10.55
2023-03-31T04:46:42.375Z,10.55
2023-03-31T04:49:10.285Z,10.52
2023-03-31T04:51:38.172Z,10.53
2023-03-31T04:54:06.305Z,10.53
2023-03-31T04:56:35.624Z,10.54
2023-03-31T04:59:04.620Z,10.55
2023-03-31T05:01:36.307Z,10.54
2023-03-31T05:04:04.749Z,10.51
2023-03-31T05:06:32.666Z,10.47
2023-03-31T05:09:00.713Z,10.45
2023-03-31T05:11:29.026Z,10.42
2023-03-31T05:13:58.361Z,10.39
2023-03-31T05:16:26.768Z,10.37
2023-03-31T05:18:55.440Z,10.36
2023-03-31T05:21:23.424Z,10.31
2023-03-31T05:23:51.470Z,10.30
2023-03-31T05:26:19.639Z,10.28
2023-03-31T05:28:47.526Z,10.25
2023-03-31T05:31:17.171Z,10.22
2023-03-31T05:33:45.220Z,10.20
2023-03-31T05:36:15.127Z,10.19
2023-03-31T05:38:43.224Z,10.18
2023-03-31T05:41:11.882Z,10.21
2023-03-31T05:43:40.412Z,10.19
2023-03-31T05:46:08.880Z,10.20
2023-03-31T05:48:38.452Z,10.23
2023-03-31T05:51:06.585Z,10.21
2023-03-31T05:53:35.310Z,10.26
2023-03-31T05:56:05.620Z,10.29
2023-03-31T05:58:35.205Z,10.34
2023-03-31T06:01:06.304Z,10.34
2023-03-31T06:03:34.858Z,10.33
2023-03-31T06:06:05.415Z,10.35
2023-03-31T06:08:33.670Z,10.36
2023-03-31T06:11:01.860Z,10.39
2023-03-31T06:13:29.733Z,10.39
2023-03-31T06:15:58.765Z,10.46
2023-03-31T06:18:29.682Z,10.47
2023-03-31T06:20:58.285Z,10.54
2023-03-31T06:23:27.899Z,10.50
2023-03-31T06:25:56.173Z,10.53
2023-03-31T06:28:24.135Z,10.55
2023-03-31T06:30:52.024Z,10.55
2023-03-31T06:33:20.003Z,10.57
2023-03-31T06:35:47.893Z,10.65
2023-03-31T06:38:15.769Z,10.66
2023-03-31T06:40:45.210Z,10.70
2023-03-31T06:43:13.111Z,10.69
2023-03-31T06:45:41.157Z,10.70
2023-03-31T06:48:09.110Z,10.79
2023-03-31T06:50:38.919Z,10.79
2023-03-31T06:53:07.054Z,10.82
2023-03-31T06:55:35.030Z,10.82
2023-03-31T06:58:04.880Z,10.84
2023-03-31T07:00:32.872Z,10.79
2023-03-31T07:03:01.413Z,10.87
2023-03-31T07:05:29.497Z,10.86
2023-03-31T07:07:58.741Z,10.87
2023-03-31T07:10:27.551Z,10.84
2023-03-31T07:12:55.465Z,10.85
2023-03-31T07:15:25.406Z,10.80
2023-03-31T07:18:02.632Z,10.86
2023-03-31T07:20:31.307Z,10.83
2023-03-31T07:22:59.380Z,10.81
2023-03-31T07:25:29.425Z,10.69
2023-03-31T07:27:57.362Z,10.64
2023-03-31T07:30:26.734Z,10.59
2023-03-31T07:32:55.093Z,10.58
2023-03-31T08:08:00.644Z,19.28
2023-03-31T08:10:29.247Z,19.39
2023-03-31T08:17:56.827Z,20.41
2023-03-31T08:20:24.728Z,20.68
2023-03-31T08:22:52.761Z,20.89
2023-03-31T08:34:46.586Z,12.00
2023-03-31T08:37:14.615Z,11.10
2023-03-31T08:39:42.510Z,10.80
2023-03-31T08:42:17.208Z,10.62
2023-03-31T08:44:47.961Z,10.44
2023-03-31T08:47:19.792Z,10.37
2023-03-31T08:49:52.467Z,10.45
2023-03-31T08:52:24.748Z,10.48
2023-03-31T08:54:54.906Z,10.55
2023-03-31T08:57:27.388Z,10.61
2023-03-31T08:59:58.353Z,10.60
2023-03-31T09:02:31.412Z,10.66
2023-03-31T09:05:27.080Z,10.75
2023-03-31T09:08:01.318Z,10.68
2023-03-31T09:10:37.131Z,10.85
2023-03-31T09:13:11.956Z,10.79
2023-03-31T09:15:45.351Z,10.85
2023-03-31T09:18:18.570Z,10.83
2023-03-31T09:20:51.347Z,10.70
2023-03-31T09:23:25.772Z,10.77
2023-03-31T09:25:53.805Z,10.85
2023-03-31T09:28:25.100Z,10.85
2023-03-31T09:30:53.633Z,10.80
2023-03-31T09:33:27.354Z,10.82
2023-03-31T09:35:56.683Z,10.84
2023-03-31T09:38:29.762Z,11.03
2023-03-31T09:40:58.232Z,11.19
2023-03-31T09:43:27.785Z,11.20
2023-03-31T09:48:28.601Z,11.16
2023-03-31T09:51:00.326Z,11.12
2023-03-31T09:53:34.149Z,10.94
2023-03-31T09:56:03.662Z,10.98
2023-03-31T09:58:31.894Z,11.06
2023-03-31T10:01:01.845Z,11.05
2023-03-31T10:03:36.777Z,11.11
2023-03-31T10:06:10.676Z,11.13
2023-03-31T10:08:41.910Z,11.14
2023-03-31T10:11:11.422Z,11.22
2023-03-31T10:13:47.761Z,11.24
2023-03-31T10:16:21.950Z,11.35
2023-03-31T10:18:50.831Z,11.39
2023-03-31T10:21:23.359Z,11.32
2023-03-31T10:23:52.193Z,11.29
2023-03-31T10:26:22.560Z,11.36
2023-03-31T10:28:52.509Z,11.35
2023-03-31T10:31:20.708Z,11.34
2023-03-31T10:33:50.337Z,11.35
2023-03-31T10:36:24.284Z,11.34
2023-03-31T10:38:53.526Z,11.43
2023-03-31T10:41:23.945Z,11.41
2023-03-31T10:43:53.621Z,11.51
2023-03-31T10:46:25.298Z,11.47
2023-03-31T10:52:22.119Z,11.49
2023-03-31T10:54:51.659Z,11.44
2023-03-31T10:57:26.499Z,11.46
2023-03-31T11:00:15.303Z,11.49
2023-03-31T11:03:02.854Z,11.44
2023-03-31T11:05:33.480Z,11.28
2023-03-31T11:08:12.700Z,11.26
2023-03-31T11:10:55.378Z,11.23
2023-03-31T11:13:27.979Z,11.14
2023-03-31T11:16:01.524Z,11.04
2023-03-31T11:18:37.823Z,10.99
2023-03-31T11:21:14.796Z,10.92
2023-03-31T11:23:46.811Z,10.96
2023-03-31T11:26:17.808Z,11.01
2023-03-31T11:29:06.460Z,10.95
2023-03-31T11:31:42.054Z,10.97
2023-03-31T11:34:22.908Z,10.95
2023-03-31T11:37:21.539Z,10.99
2023-03-31T11:40:01.964Z,11.13
2023-03-31T11:42:36.173Z,10.91
2023-03-31T11:45:12.403Z,10.85
2023-03-31T11:47:44.672Z,10.95
2023-03-31T11:50:14.222Z,11.02
2023-03-31T11:52:45.544Z,10.90
2023-03-31T11:55:18.039Z,10.92
2023-03-31T11:57:49.039Z,10.91
2023-03-31T12:00:20.227Z,10.94
2023-03-31T12:02:52.985Z,10.93
2023-03-31T12:05:22.390Z,10.90
2023-03-31T12:07:55.392Z,11.01
2023-03-31T12:10:33.252Z,11.11
2023-03-31T12:13:06.423Z,11.31
2023-03-31T12:15:36.731Z,11.32
2023-03-31T12:18:12.064Z,11.32
2023-03-31T12:20:43.631Z,11.27
2023-03-31T12:23:15.887Z,11.36
2023-03-31T12:25:49.796Z,11.42
2023-03-31T12:28:19.010Z,11.57
2023-03-31T12:30:48.226Z,11.62
2023-03-31T12:33:20.392Z,11.96
2023-03-31T12:35:59.673Z,12.20
2023-03-31T12:38:36.799Z,12.25
2023-03-31T12:41:11.785Z,11.94
2023-03-31T12:43:59.954Z,11.92
2023-03-31T12:47:03.243Z,12.00
2023-03-31T12:49:47.928Z,12.05
2023-03-31T12:52:19.816Z,12.10
2023-03-31T12:55:11.075Z,11.95
2023-03-31T12:57:40.347Z,12.01
2023-03-31T13:00:21.106Z,12.17
2023-03-31T13:02:50.133Z,12.22
2023-03-31T13:05:48.282Z,12.23
2023-03-31T13:08:51.493Z,12.08
2023-03-31T13:11:20.177Z,12.15
2023-03-31T13:16:47.379Z,12.34
2023-03-31T13:19:28.596Z,12.38
2023-03-31T13:21:58.233Z,12.26
2023-03-31T13:24:27.089Z,12.40
2023-03-31T13:26:56.769Z,12.51
2023-03-31T13:29:28.655Z,12.63
2023-03-31T13:32:19.690Z,12.89
2023-03-31T13:34:52.314Z,13.03
2023-03-31T13:37:36.583Z,13.30
2023-03-31T13:40:16.139Z,13.38
2023-03-31T13:43:06.292Z,13.73
2023-03-31T13:45:55.198Z,13.69
2023-03-31T13:48:36.048Z,13.85
2023-03-31T13:51:17.020Z,13.79
2023-03-31T13:53:59.118Z,13.60
2023-03-31T13:56:39.349Z,13.59
2023-03-31T13:59:22.410Z,13.63
2023-03-31T14:02:13.392Z,13.43
2023-03-31T14:05:05.208Z,13.23
2023-03-31T14:07:34.666Z,13.10
2023-03-31T14:10:04.337Z,13.11
2023-03-31T14:12:34.100Z,13.08
2023-03-31T14:15:02.143Z,13.08
2023-03-31T14:17:33.982Z,13.02
2023-03-31T14:20:20.146Z,12.89
2023-03-31T14:22:52.344Z,12.71
2023-03-31T14:25:28.239Z,12.57
2023-03-31T14:28:05.186Z,12.71
2023-03-31T14:30:42.582Z,12.74
2023-03-31T14:33:22.969Z,12.71
2023-03-31T14:35:58.149Z,12.86
2023-03-31T14:38:27.288Z,12.81
2023-03-31T14:41:00.958Z,12.73
2023-03-31T14:43:31.288Z,12.90
2023-03-31T14:46:00.608Z,12.87
2023-03-31T14:48:35.762Z,12.88
2023-03-31T14:51:04.697Z,12.78
2023-03-31T14:53:32.640Z,12.82
2023-03-31T14:56:03.703Z,12.87
2023-03-31T14:58:35.455Z,12.94
2023-03-31T15:01:04.506Z,12.94
2023-03-31T15:03:34.497Z,12.81
2023-03-31T15:06:03.703Z,12.91
2023-03-31T15:08:32.005Z,12.80
2023-03-31T15:11:11.911Z,12.67
2023-03-31T15:13:47.009Z,12.67
2023-03-31T15:16:22.830Z,12.62
2023-03-31T15:18:54.801Z,12.80
2023-03-31T15:21:24.995Z,13.67
2023-03-31T15:23:53.832Z,14.44
2023-03-31T15:26:28.079Z,14.40
2023-03-31T15:29:06.099Z,14.50
2023-03-31T15:31:34.198Z,14.68
2023-03-31T15:34:13.929Z,14.76
2023-03-31T15:36:42.293Z,14.52
2023-03-31T15:39:10.350Z,14.12
2023-03-31T15:41:38.341Z,13.82
2023-03-31T15:44:07.970Z,13.77
2023-03-31T15:46:51.301Z,13.58
2023-03-31T15:49:22.278Z,13.51
2023-03-31T15:51:53.087Z,13.08
2023-03-31T15:54:37.312Z,13.16
2023-03-31T15:57:06.387Z,13.12
2023-03-31T15:59:54.717Z,12.73
2023-03-31T16:02:27.507Z,12.70
2023-03-31T16:04:59.588Z,12.73
2023-03-31T16:07:29.531Z,12.75
2023-03-31T16:10:00.452Z,12.71
2023-03-31T16:12:31.721Z,12.67
2023-03-31T16:15:01.491Z,12.81
2023-03-31T16:17:32.844Z,12.78
2023-03-31T16:20:07.334Z,12.86
2023-03-31T16:22:38.918Z,12.75
2023-03-31T16:25:13.370Z,12.57
2023-03-31T16:27:45.022Z,12.56
2023-03-31T16:30:17.186Z,12.57
2023-03-31T16:33:02.788Z,12.50
2023-03-31T16:35:37.640Z,12.37
2023-03-31T16:38:06.463Z,12.48
2023-03-31T16:40:37.703Z,12.46
2023-03-31T16:43:17.778Z,12.40
2023-03-31T16:45:48.217Z,12.30
2023-03-31T16:48:17.964Z,12.37
2023-03-31T16:50:48.514Z,12.34
2023-03-31T16:53:17.779Z,12.31
2023-03-31T16:55:45.851Z,12.34
2023-03-31T16:58:13.811Z,12.23
2023-03-31T17:00:42.839Z,12.17
2023-03-31T17:03:11.806Z,12.21
2023-03-31T17:05:41.358Z,12.18
2023-03-31T17:08:10.958Z,12.14
2023-03-31T17:10:39.822Z,12.06
2023-03-31T17:13:08.589Z,12.11
2023-03-31T17:15:37.913Z,12.14
2023-03-31T17:18:07.290Z,12.09
2023-03-31T17:20:36.145Z,12.08
2023-03-31T17:23:04.418Z,12.02
2023-03-31T17:25:34.593Z,11.99
2023-03-31T17:28:02.850Z,11.99
2023-03-31T17:30:31.688Z,11.99
2023-03-31T17:33:00.282Z,11.97
2023-03-31T17:35:28.820Z,11.96
2023-03-31T17:37:56.754Z,12.00
2023-03-31T17:40:26.837Z,12.12
2023-03-31T17:42:56.949Z,12.21
2023-03-31T17:45:25.281Z,12.23
2023-03-31T17:47:53.382Z,12.23
2023-03-31T17:50:21.375Z,12.20
2023-03-31T17:52:49.570Z,12.18
2023-03-31T17:55:17.861Z,12.12
2023-03-31T17:57:46.243Z,12.18
2023-03-31T18:00:16.668Z,12.17
2023-03-31T18:02:45.133Z,12.13
2023-03-31T18:05:13.226Z,12.10
2023-03-31T18:07:41.577Z,11.94
2023-03-31T18:10:10.772Z,12.03
2023-03-31T18:12:38.802Z,12.03
2023-03-31T18:15:07.849Z,12.00
2023-03-31T18:17:37.346Z,12.00
2023-03-31T18:20:06.267Z,11.91
2023-03-31T18:22:34.176Z,11.86
2023-03-31T18:25:02.635Z,11.74
2023-03-31T18:27:30.890Z,11.71
2023-03-31T18:29:58.808Z,11.71
2023-03-31T18:32:27.591Z,11.67
2023-03-31T18:34:57.317Z,11.52
2023-03-31T18:37:25.360Z,11.41
2023-03-31T18:39:53.466Z,11.38
2023-03-31T18:42:25.147Z,11.33
2023-03-31T18:44:53.872Z,11.39
2023-03-31T18:47:22.235Z,11.26
2023-03-31T18:49:53.903Z,11.35
2023-03-31T18:52:23.359Z,11.23
2023-03-31T18:54:51.417Z,11.30
2023-03-31T18:57:19.787Z,11.27
2023-03-31T18:59:47.748Z,11.22
2023-03-31T19:02:18.042Z,11.27
2023-03-31T19:04:46.824Z,11.26
2023-03-31T19:07:15.687Z,11.18
2023-03-31T19:09:46.647Z,11.02
2023-03-31T19:12:15.336Z,11.07
2023-03-31T19:14:44.149Z,11.03
2023-03-31T19:17:12.479Z,11.07
2023-03-31T19:19:40.390Z,10.99
2023-03-31T19:22:08.279Z,10.92
2023-03-31T19:24:36.815Z,10.88
2023-03-31T19:27:06.454Z,10.83
2023-03-31T19:29:35.373Z,10.82
2023-03-31T19:32:03.826Z,10.74
2023-03-31T19:34:31.845Z,10.77
2023-03-31T19:37:03.891Z,10.73
2023-03-31T19:39:31.889Z,10.75
2023-03-31T19:41:59.826Z,10.72
2023-03-31T19:44:30.569Z,10.66
2023-03-31T19:46:58.749Z,10.66
2023-03-31T19:49:27.168Z,10.62
2023-03-31T19:51:55.978Z,10.58
2023-03-31T19:54:24.653Z,10.56
2023-03-31T19:56:52.733Z,10.57
2023-03-31T19:59:20.695Z,10.56
2023-03-31T20:01:50.188Z,10.57
2023-03-31T20:04:18.539Z,10.57
2023-03-31T20:06:48.293Z,10.60
2023-03-31T20:09:17.341Z,10.59
2023-03-31T20:11:45.578Z,10.58
2023-03-31T20:14:15.154Z,10.57
2023-03-31T20:16:44.601Z,10.55
2023-03-31T20:19:18.201Z,10.55
2023-03-31T20:21:47.135Z,10.52
2023-03-31T20:24:16.974Z,10.48
2023-03-31T20:26:45.322Z,10.49
2023-03-31T20:29:13.865Z,10.59
2023-03-31T20:31:42.443Z,10.54
2023-03-31T20:34:14.103Z,10.56
2023-03-31T20:36:43.106Z,10.56
2023-03-31T20:39:11.502Z,10.53
2023-03-31T20:41:39.588Z,10.52
2023-03-31T20:44:12.660Z,10.45
2023-03-31T20:46:43.304Z,10.41
2023-03-31T20:49:11.477Z,10.39
2023-03-31T20:51:41.787Z,10.34
2023-03-31T20:54:09.976Z,10.32
2023-03-31T20:56:39.482Z,10.34
2023-03-31T20:59:08.813Z,10.35
2023-03-31T21:01:37.487Z,10.38
2023-03-31T21:04:06.895Z,10.43
2023-03-31T21:06:38.975Z,10.36
2023-03-31T21:09:09.062Z,10.39
2023-03-31T21:11:36.986Z,10.36
2023-03-31T21:14:05.870Z,10.41
2023-03-31T21:16:34.160Z,10.43
2023-03-31T21:19:02.136Z,10.41
2023-03-31T21:21:30.415Z,10.43
2023-03-31T21:23:58.588Z,10.42
2023-03-31T21:26:27.965Z,10.36
2023-03-31T21:28:56.049Z,10.38
2023-03-31T21:31:25.344Z,10.37
2023-03-31T21:33:56.622Z,10.35
2023-03-31T21:36:26.739Z,10.34
2023-03-31T21:38:55.753Z,10.30
2023-03-31T21:41:25.133Z,10.31
2023-03-31T21:43:55.572Z,10.35
2023-03-31T21:46:26.071Z,10.36
2023-03-31T21:48:54.610Z,10.35
2023-03-31T21:51:23.237Z,10.38
2023-03-31T21:53:55.654Z,10.35
2023-03-31T21:56:24.183Z,10.30
2023-03-31T21:58:52.258Z,10.28
2023-03-31T22:01:22.501Z,10.28
2023-03-31T22:03:50.652Z,10.30
2023-03-31T22:06:18.745Z,10.30
2023-03-31T22:08:47.074Z,10.27
2023-03-31T22:11:16.029Z,10.26
2023-03-31T22:13:43.985Z,10.25
2023-03-31T22:16:16.857Z,10.23
2023-03-31T22:18:47.071Z,10.25
2023-03-31T22:21:17.141Z,10.23
2023-03-31T22:23:45.094Z,10.25
2023-03-31T22:26:13.205Z,10.25
2023-03-31T22:28:41.184Z,10.26
2023-03-31T22:31:09.338Z,10.27
2023-03-31T22:33:37.480Z,10.23
2023-03-31T22:36:07.403Z,10.24
2023-03-31T22:38:35.512Z,10.23
2023-03-31T22:41:03.480Z,10.20
2023-03-31T22:43:31.439Z,10.18
2023-03-31T22:46:03.792Z,10.16
2023-03-31T22:48:31.737Z,10.16
2023-03-31T22:50:59.785Z,10.16
2023-03-31T22:53:29.133Z,10.15
2023-03-31T22:55:57.065Z,10.15
2023-03-31T22:58:24.999Z,10.14
2023-03-31T23:00:57.357Z,10.13
2023-03-31T23:03:25.936Z,10.12
2023-03-31T23:05:54.180Z,10.09
2023-03-31T23:08:22.124Z,10.11
2023-03-31T23:11:01.437Z,10.06
2023-03-31T23:13:30.550Z,10.04
2023-03-31T23:16:04.447Z,10.01
2023-03-31T23:18:32.412Z,9.95
2023-03-31T23:21:01.230Z,9.97
2023-03-31T23:23:29.136Z,9.96
2023-03-31T23:25:57.066Z,9.93
2023-03-31T23:28:26.381Z,9.93
2023-03-31T23:30:56.725Z,9.91
2023-03-31T23:33:25.549Z,9.88
2023-03-31T23:35:54.119Z,9.85
2023-03-31T23:38:22.362Z,9.88
2023-03-31T23:40:50.396Z,9.88
2023-03-31T23:43:18.416Z,9.90
2023-03-31T23:45:47.709Z,9.86
2023-03-31T23:48:15.699Z,9.90
2023-03-31T23:50:43.613Z,9.91
2023-03-31T23:53:11.548Z,9.91
2023-03-31T23:55:39.609Z,9.87
2023-03-31T23:58:07.799Z,9.88
